createdAt,value
2022-11-18T00:01:20.243Z,8.60
2022-11-18T00:03:48.945Z,8.60
2022-11-18T00:06:19.394Z,8.60
2022-11-18T00:08:47.724Z,8.50
2022-11-18T00:11:37.376Z,8.50
2022-11-18T00:14:20.664Z,8.50
2022-11-18T00:16:52.617Z,8.50
2022-11-18T00:19:21.666Z,8.50
2022-11-18T00:21:50.010Z,8.50
2022-11-18T00:24:18.076Z,8.50
2022-11-18T00:26:46.047Z,8.50
2022-11-18T00:29:15.010Z,8.50
2022-11-18T00:31:43.352Z,8.60
2022-11-18T00:34:15.056Z,8.50
2022-11-18T00:36:44.100Z,8.60
2022-11-18T00:39:13.028Z,8.60
2022-11-18T00:41:58.900Z,8.60
2022-11-18T00:44:27.163Z,8.60
2022-11-18T00:46:55.757Z,8.60
2022-11-18T00:49:25.661Z,8.60
2022-11-18T00:51:53.620Z,8.70
2022-11-18T00:54:21.590Z,8.60
2022-11-18T00:56:49.593Z,8.60
2022-11-18T00:59:17.879Z,8.60
2022-11-18T01:01:46.199Z,8.60
2022-11-18T01:04:14.239Z,8.60
2022-11-18T01:06:43.591Z,8.60
2022-11-18T01:09:11.583Z,8.60
2022-11-18T01:11:56.906Z,8.60
2022-11-18T01:14:25.938Z,8.60
2022-11-18T01:16:55.871Z,8.60
2022-11-18T01:19:24.744Z,8.60
2022-11-18T01:21:54.186Z,8.60
2022-11-18T01:24:22.248Z,8.70
2022-11-18T01:26:50.468Z,8.70
2022-11-18T01:29:18.798Z,8.70
2022-11-18T01:32:16.935Z,8.80
2022-11-18T01:34:35.093Z,8.70
2022-11-18T01:37:04.412Z,8.80
2022-11-18T01:39:32.478Z,8.80
2022-11-18T01:42:01.298Z,8.90
2022-11-18T01:44:58.176Z,8.80
2022-11-18T01:47:29.834Z,8.80
2022-11-18T01:49:59.262Z,8.90
2022-11-18T01:52:29.938Z,8.90
2022-11-18T01:55:02.941Z,8.90
2022-11-18T01:57:32.371Z,8.90
2022-11-18T02:00:03.837Z,8.90
2022-11-18T02:02:35.255Z,8.90
2022-11-18T02:05:05.658Z,8.90
2022-11-18T02:07:37.233Z,9.00
2022-11-18T02:10:08.461Z,8.90
2022-11-18T02:12:37.025Z,8.90
2022-11-18T02:15:05.685Z,8.90
2022-11-18T02:17:45.205Z,8.90
2022-11-18T02:20:32.781Z,8.80
2022-11-18T02:23:37.293Z,8.80
2022-11-18T02:26:32.923Z,8.70
2022-11-18T02:29:08.459Z,8.60
2022-11-18T02:31:45.657Z,8.50
2022-11-18T02:34:22.878Z,8.40
2022-11-18T02:36:58.539Z,8.30
2022-11-18T02:39:32.590Z,8.20
2022-11-18T02:42:03.410Z,8.10
2022-11-18T02:44:33.733Z,8.10
2022-11-18T02:47:06.221Z,8.00
2022-11-18T02:49:38.079Z,8.00
2022-11-18T02:52:07.739Z,8.00
2022-11-18T02:54:40.956Z,7.90
2022-11-18T02:57:09.803Z,7.90
2022-11-18T02:59:39.142Z,7.90
2022-11-18T03:02:07.322Z,7.90
2022-11-18T03:04:36.461Z,7.80
2022-11-18T03:07:12.955Z,7.80
2022-11-18T03:09:43.807Z,7.80
2022-11-18T03:12:18.547Z,7.80
2022-11-18T03:14:58.539Z,7.80
2022-11-18T03:17:35.902Z,7.80
2022-11-18T03:20:17.039Z,7.80
2022-11-18T03:22:49.218Z,7.70
2022-11-18T03:25:21.505Z,7.70
2022-11-18T03:27:56.370Z,7.70
2022-11-18T03:30:27.854Z,7.70
2022-11-18T03:33:00.974Z,7.60
2022-11-18T03:35:32.976Z,7.60
2022-11-18T03:38:04.582Z,7.60
2022-11-18T03:40:34.472Z,7.60
2022-11-18T03:43:07.393Z,7.60
2022-11-18T03:45:45.754Z,7.60
2022-11-18T03:48:17.632Z,7.60
2022-11-18T03:50:49.774Z,7.60
2022-11-18T03:53:20.425Z,7.60
2022-11-18T03:55:52.326Z,7.60
2022-11-18T03:58:26.479Z,7.60
2022-11-18T04:01:00.517Z,8.10
2022-11-18T04:03:28.936Z,7.60
2022-11-18T04:06:05.660Z,7.70
2022-11-18T04:08:39.274Z,7.60
2022-11-18T04:11:32.415Z,7.60
2022-11-18T04:14:01.432Z,7.70
2022-11-18T04:16:30.808Z,7.60
2022-11-18T04:19:04.498Z,7.70
2022-11-18T04:21:34.042Z,7.70
2022-11-18T04:24:02.162Z,7.70
2022-11-18T04:26:31.504Z,7.70
2022-11-18T04:28:59.733Z,7.70
2022-11-18T04:31:27.703Z,7.70
2022-11-18T04:33:57.069Z,7.70
2022-11-18T04:36:25.061Z,7.70
2022-11-18T04:38:53.017Z,7.80
2022-11-18T04:41:41.127Z,7.80
2022-11-18T04:44:12.949Z,7.80
2022-11-18T04:46:42.756Z,7.80
2022-11-18T04:49:13.875Z,7.70
2022-11-18T04:51:42.716Z,7.70
2022-11-18T04:54:11.867Z,7.70
2022-11-18T04:56:45.656Z,7.70
2022-11-18T04:59:18.396Z,7.70
2022-11-18T05:01:46.582Z,7.70
2022-11-18T05:04:17.664Z,7.70
2022-11-18T05:06:46.084Z,7.70
2022-11-18T05:09:14.201Z,7.80
2022-11-18T05:11:59.564Z,7.70
2022-11-18T05:14:28.149Z,7.80
2022-11-18T05:16:57.695Z,7.80
2022-11-18T05:19:27.472Z,7.80
2022-11-18T05:21:55.806Z,7.80
2022-11-18T05:24:24.681Z,7.80
2022-11-18T05:26:53.001Z,7.80
2022-11-18T05:29:21.393Z,7.80
2022-11-18T05:31:50.241Z,7.80
2022-11-18T05:34:19.431Z,7.80
2022-11-18T05:36:50.615Z,7.90
2022-11-18T05:39:19.708Z,7.90
2022-11-18T05:42:05.544Z,7.90
2022-11-18T05:44:33.514Z,7.90
2022-11-18T05:47:01.466Z,7.90
2022-11-18T05:49:29.423Z,7.90
2022-11-18T05:51:58.769Z,7.90
2022-11-18T05:54:27.371Z,8.00
2022-11-18T05:56:55.375Z,8.00
2022-11-18T05:59:23.285Z,8.00
2022-11-18T06:01:56.937Z,8.00
2022-11-18T06:04:29.066Z,8.10
2022-11-18T06:07:01.375Z,8.10
2022-11-18T06:09:33.723Z,8.10
2022-11-18T06:12:04.674Z,8.20
2022-11-18T06:14:37.347Z,8.20
2022-11-18T06:17:09.553Z,8.20
2022-11-18T06:19:37.639Z,8.20
2022-11-18T06:22:08.508Z,8.20
2022-11-18T06:24:36.912Z,8.20
2022-11-18T06:27:05.456Z,8.30
2022-11-18T06:29:35.354Z,8.30
2022-11-18T06:32:03.310Z,8.30
2022-11-18T06:34:31.237Z,8.30
2022-11-18T06:36:59.265Z,8.30
2022-11-18T06:39:29.405Z,8.30
2022-11-18T06:41:57.343Z,8.30
2022-11-18T06:44:25.112Z,8.30
2022-11-18T06:46:59.543Z,8.30
2022-11-18T06:49:28.797Z,8.30
2022-11-18T06:51:56.700Z,8.30
2022-11-18T06:54:24.716Z,8.40
2022-11-18T06:56:54.055Z,8.40
2022-11-18T06:59:24.470Z,8.40
2022-11-18T07:01:53.436Z,8.40
2022-11-18T07:04:21.903Z,8.40
2022-11-18T07:06:49.915Z,8.40
2022-11-18T07:09:18.132Z,8.40
2022-11-18T07:11:46.405Z,8.40
2022-11-18T07:14:15.771Z,8.40
2022-11-18T07:16:43.839Z,8.40
2022-11-18T07:19:14.363Z,8.40
2022-11-18T07:21:43.289Z,8.40
2022-11-18T07:24:14.837Z,8.40
2022-11-18T07:26:43.270Z,8.50
2022-11-18T07:29:11.608Z,8.50
2022-11-18T07:31:40.980Z,8.50
2022-11-18T07:34:09.382Z,8.50
2022-11-18T07:36:37.459Z,8.60
2022-11-18T07:39:07.407Z,8.60
2022-11-18T07:41:36.371Z,8.60
2022-11-18T07:44:06.396Z,8.60
2022-11-18T07:46:36.215Z,8.60
2022-11-18T07:49:07.023Z,8.70
2022-11-18T07:51:36.787Z,8.80
2022-11-18T07:54:08.286Z,8.80
2022-11-18T07:56:36.577Z,8.90
2022-11-18T07:59:05.054Z,9.00
2022-11-18T08:01:33.240Z,9.10
2022-11-18T08:04:08.367Z,9.20
2022-11-18T08:06:37.792Z,9.20
2022-11-18T08:09:07.191Z,9.30
2022-11-18T08:11:35.120Z,9.30
2022-11-18T08:14:03.184Z,9.20
2022-11-18T08:16:31.552Z,9.20
2022-11-18T08:19:01.081Z,9.20
2022-11-18T08:21:30.448Z,9.10
2022-11-18T08:23:59.573Z,9.10
2022-11-18T08:26:29.461Z,9.10
2022-11-18T08:28:59.359Z,9.10
2022-11-18T08:31:28.837Z,9.10
2022-11-18T08:33:57.484Z,9.10
2022-11-18T08:36:27.480Z,9.10
2022-11-18T08:38:58.109Z,9.10
2022-11-18T08:41:30.777Z,9.10
2022-11-18T08:43:58.912Z,9.30
2022-11-18T08:46:26.946Z,9.50
2022-11-18T08:48:54.961Z,9.50
2022-11-18T08:51:23.145Z,9.60
2022-11-18T08:53:51.556Z,9.60
2022-11-18T08:56:23.204Z,9.50
2022-11-18T08:58:54.145Z,9.50
2022-11-18T09:01:22.449Z,9.40
2022-11-18T09:03:50.917Z,9.40
2022-11-18T09:06:21.214Z,9.30
2022-11-18T09:08:49.508Z,9.30
2022-11-18T09:11:18.975Z,9.30
2022-11-18T09:16:37.321Z,9.40
2022-11-18T09:19:24.792Z,9.40
2022-11-18T09:21:53.700Z,9.50
2022-11-18T09:24:21.667Z,9.50
2022-11-18T09:26:50.190Z,9.50
2022-11-18T09:29:19.947Z,9.60
2022-11-18T09:31:47.927Z,9.60
2022-11-18T09:34:16.285Z,9.60
2022-11-18T09:36:44.764Z,9.60
2022-11-18T09:39:13.123Z,9.60
2022-11-18T09:41:47.242Z,9.60
2022-11-18T09:44:30.665Z,9.60
2022-11-18T09:47:10.975Z,9.60
2022-11-18T09:49:42.144Z,9.60
2022-11-18T09:52:18.214Z,9.70
2022-11-18T09:54:46.948Z,9.80
2022-11-18T09:57:17.785Z,9.90
2022-11-18T09:59:47.418Z,9.90
2022-11-18T10:02:30.119Z,10.10
2022-11-18T10:05:03.715Z,10.20
2022-11-18T10:07:42.800Z,10.30
2022-11-18T10:10:17.893Z,10.50
2022-11-18T10:12:51.189Z,10.60
2022-11-18T10:15:33.704Z,10.70
2022-11-18T10:18:37.917Z,10.70
2022-11-18T10:21:16.468Z,10.70
2022-11-18T10:23:52.529Z,10.80
2022-11-18T10:26:34.126Z,10.70
2022-11-18T10:29:02.509Z,10.60
2022-11-18T10:31:31.933Z,10.50
2022-11-18T10:34:01.113Z,10.40
2022-11-18T10:36:30.748Z,10.30
2022-11-18T10:39:12.374Z,10.30
2022-11-18T10:41:46.863Z,10.30
2022-11-18T10:44:33.771Z,10.30
2022-11-18T10:47:24.488Z,10.30
2022-11-18T10:49:53.245Z,10.30
2022-11-18T10:52:22.234Z,10.40
2022-11-18T10:55:09.717Z,10.40
2022-11-18T10:57:43.508Z,10.60
2022-11-18T11:00:44.239Z,10.70
2022-11-18T11:03:27.248Z,10.90
2022-11-18T11:06:15.697Z,11.10
2022-11-18T11:08:49.467Z,11.10
2022-11-18T11:11:28.584Z,11.00
2022-11-18T11:14:03.081Z,11.00
2022-11-18T11:16:32.635Z,11.00
2022-11-18T11:19:05.005Z,11.00
2022-11-18T11:21:33.076Z,10.90
2022-11-18T11:24:01.083Z,10.90
2022-11-18T11:29:54.413Z,10.90
2022-11-18T11:32:30.229Z,10.90
2022-11-18T11:35:08.072Z,11.00
2022-11-18T11:37:46.936Z,11.10
2022-11-18T11:40:26.844Z,11.10
2022-11-18T11:43:08.562Z,11.20
2022-11-18T11:45:44.152Z,11.40
2022-11-18T11:48:33.630Z,11.40
2022-11-18T11:51:10.098Z,11.40
2022-11-18T11:54:01.767Z,11.30
2022-11-18T11:56:35.592Z,11.20
2022-11-18T11:59:16.234Z,11.20
2022-11-18T12:01:55.814Z,11.20
2022-11-18T12:04:38.549Z,11.20
2022-11-18T12:07:15.311Z,11.10
2022-11-18T12:10:06.683Z,11.20
2022-11-18T12:12:42.453Z,11.20
2022-11-18T12:15:31.539Z,11.20
2022-11-18T12:18:11.931Z,11.20
2022-11-18T12:20:46.007Z,11.10
2022-11-18T12:23:17.963Z,11.00
2022-11-18T12:26:02.895Z,11.00
2022-11-18T12:28:33.524Z,11.00
2022-11-18T12:31:36.365Z,11.00
2022-11-18T12:34:21.402Z,11.00
2022-11-18T12:36:49.332Z,10.80
2022-11-18T12:39:56.760Z,10.70
2022-11-18T12:43:01.091Z,10.50
2022-11-18T12:45:52.583Z,10.40
2022-11-18T12:48:38.906Z,10.40
2022-11-18T12:51:40.737Z,10.50
2022-11-18T12:54:33.204Z,10.60
2022-11-18T12:57:03.535Z,10.60
2022-11-18T12:59:35.339Z,10.70
2022-11-18T13:02:17.829Z,10.60
2022-11-18T13:04:49.673Z,10.60
2022-11-18T13:07:40.330Z,10.50
2022-11-18T13:10:22.533Z,10.30
2022-11-18T13:12:51.549Z,10.20
2022-11-18T13:15:38.837Z,10.00
2022-11-18T13:18:12.590Z,10.00
2022-11-18T13:20:41.930Z,9.90
2022-11-18T13:23:45.559Z,9.80
2022-11-18T13:26:18.783Z,9.70
2022-11-18T13:29:06.764Z,9.70
2022-11-18T13:31:41.451Z,9.70
2022-11-18T13:34:17.514Z,9.80
2022-11-18T13:36:47.160Z,10.00
2022-11-18T13:39:22.560Z,10.10
2022-11-18T13:42:01.800Z,10.30
2022-11-18T13:44:31.647Z,10.40
2022-11-18T13:47:09.834Z,10.40
2022-11-18T13:49:50.887Z,10.50
2022-11-18T13:52:22.187Z,10.60
2022-11-18T13:54:52.611Z,10.70
2022-11-18T13:57:23.112Z,10.70
2022-11-18T13:59:53.839Z,10.70
2022-11-18T14:02:23.533Z,10.70
2022-11-18T14:04:55.540Z,10.70
2022-11-18T14:07:32.767Z,10.70
2022-11-18T14:10:03.189Z,10.70
2022-11-18T14:12:32.923Z,10.60
2022-11-18T14:15:18.011Z,10.60
2022-11-18T14:17:56.007Z,10.50
2022-11-18T14:20:25.042Z,10.40
2022-11-18T14:22:56.246Z,10.40
2022-11-18T14:25:28.177Z,10.40
2022-11-18T14:27:57.616Z,10.30
2022-11-18T14:30:37.335Z,10.30
2022-11-18T14:33:20.529Z,10.20
2022-11-18T14:35:54.483Z,10.20
2022-11-18T14:38:57.612Z,10.20
2022-11-18T14:41:16.063Z,10.20
2022-11-18T14:43:45.937Z,10.10
2022-11-18T14:46:17.702Z,10.10
2022-11-18T14:48:47.707Z,10.00
2022-11-18T14:51:17.370Z,10.00
2022-11-18T14:53:45.786Z,10.10
2022-11-18T14:56:17.669Z,10.00
2022-11-18T14:58:45.644Z,10.00
2022-11-18T15:01:14.315Z,10.00
2022-11-18T15:03:42.345Z,9.90
2022-11-18T15:06:16.730Z,9.90
2022-11-18T15:08:45.967Z,9.80
2022-11-18T15:11:14.739Z,9.80
2022-11-18T15:13:43.324Z,9.70
2022-11-18T15:16:15.729Z,9.70
2022-11-18T15:18:43.796Z,9.70
2022-11-18T15:21:11.929Z,9.60
2022-11-18T15:23:41.492Z,9.50
2022-11-18T15:26:18.973Z,9.50
2022-11-18T15:28:47.710Z,9.40
2022-11-18T15:31:15.774Z,9.30
2022-11-18T15:33:44.557Z,9.30
2022-11-18T15:36:14.687Z,9.20
2022-11-18T15:38:44.469Z,9.20
2022-11-18T15:41:17.405Z,9.10
2022-11-18T15:43:46.066Z,9.10
2022-11-18T15:46:14.094Z,9.00
2022-11-18T15:48:42.062Z,9.00
2022-11-18T15:51:12.060Z,8.90
2022-11-18T15:53:40.954Z,8.90
2022-11-18T15:56:17.774Z,8.80
2022-11-18T15:58:46.224Z,8.80
2022-11-18T16:01:14.233Z,8.70
2022-11-18T16:03:42.175Z,8.70
2022-11-18T16:06:10.126Z,8.60
2022-11-18T16:08:38.063Z,8.60
2022-11-18T16:11:24.003Z,8.60
2022-11-18T16:13:53.354Z,8.50
2022-11-18T16:16:21.705Z,8.50
2022-11-18T16:18:49.627Z,8.50
2022-11-18T16:21:17.632Z,8.50
2022-11-18T16:23:45.747Z,8.50
2022-11-18T16:26:17.068Z,8.50
2022-11-18T16:28:45.310Z,8.50
2022-11-18T16:31:32.007Z,8.60
2022-11-18T16:34:00.008Z,8.50
2022-11-18T16:36:28.427Z,8.50
2022-11-18T16:38:56.875Z,8.50
2022-11-18T16:41:33.724Z,8.50
2022-11-18T16:44:04.083Z,8.40
2022-11-18T16:46:35.112Z,8.50
2022-11-18T16:49:04.376Z,8.50
2022-11-18T16:51:33.690Z,8.50
2022-11-18T16:54:03.357Z,8.50
2022-11-18T16:56:33.356Z,8.50
2022-11-18T16:59:03.151Z,8.50
2022-11-18T17:01:31.171Z,8.50
2022-11-18T17:04:01.543Z,8.50
2022-11-18T17:06:31.603Z,8.50
2022-11-18T17:08:59.753Z,8.50
2022-11-18T17:11:28.074Z,8.60
2022-11-18T17:13:58.313Z,8.60
2022-11-18T17:16:26.956Z,8.60
2022-11-18T17:18:56.501Z,8.50
2022-11-18T17:21:27.235Z,8.60
2022-11-18T17:23:55.889Z,8.60
2022-11-18T17:26:25.681Z,8.60
2022-11-18T17:28:53.936Z,8.60
2022-11-18T17:31:23.741Z,8.60
2022-11-18T17:33:53.934Z,8.60
2022-11-18T17:36:23.616Z,8.60
2022-11-18T17:38:54.600Z,8.60
2022-11-18T17:41:41.751Z,8.50
2022-11-18T17:44:12.704Z,8.50
2022-11-18T17:46:41.064Z,8.50
2022-11-18T17:49:13.019Z,8.50
2022-11-18T17:51:41.015Z,8.40
2022-11-18T17:54:10.559Z,8.50
2022-11-18T17:56:38.495Z,8.40
2022-11-18T17:59:06.449Z,8.40
2022-11-18T18:01:34.418Z,8.30
2022-11-18T18:04:02.377Z,8.20
2022-11-18T18:06:30.736Z,8.20
2022-11-18T18:08:59.532Z,8.10
2022-11-18T18:11:29.016Z,8.00
2022-11-18T18:14:14.344Z,8.00
2022-11-18T18:16:44.463Z,8.00
2022-11-18T18:19:14.166Z,8.00
2022-11-18T18:21:42.241Z,8.00
2022-11-18T18:24:11.308Z,8.00
2022-11-18T18:26:40.665Z,8.00
2022-11-18T18:29:08.674Z,8.00
2022-11-18T18:31:37.700Z,8.00
2022-11-18T18:34:05.828Z,8.10
2022-11-18T18:36:33.839Z,8.10
2022-11-18T18:39:02.415Z,8.10
2022-11-18T18:41:31.155Z,8.20
2022-11-18T18:44:00.839Z,8.20
2022-11-18T18:46:28.745Z,8.20
2022-11-18T18:48:58.771Z,8.20
2022-11-18T18:51:27.704Z,8.10
2022-11-18T18:53:57.080Z,8.10
2022-11-18T18:56:25.474Z,8.10
2022-11-18T18:58:53.454Z,8.10
2022-11-18T19:01:23.104Z,8.10
2022-11-18T19:03:55.607Z,8.10
2022-11-18T19:06:51.979Z,8.10
2022-11-18T19:09:14.734Z,8.10
2022-11-18T19:12:00.876Z,8.20
2022-11-18T19:14:29.184Z,8.20
2022-11-18T19:16:58.511Z,8.20
2022-11-18T19:19:45.978Z,8.20
2022-11-18T19:22:15.769Z,8.20
2022-11-18T19:24:51.435Z,8.20
2022-11-18T19:27:19.666Z,8.20
2022-11-18T19:29:47.627Z,8.20
2022-11-18T19:32:17.005Z,8.20
2022-11-18T19:34:45.109Z,8.20
2022-11-18T19:37:13.488Z,8.20
2022-11-18T19:39:41.467Z,8.20
2022-11-18T19:42:10.890Z,8.10
2022-11-18T19:44:39.237Z,8.10
2022-11-18T19:47:07.207Z,8.10
2022-11-18T19:49:36.588Z,8.10
2022-11-18T19:52:04.712Z,8.10
2022-11-18T19:54:32.667Z,8.10
2022-11-18T19:57:00.903Z,8.00
2022-11-18T19:59:28.889Z,8.00
2022-11-18T20:01:56.922Z,8.00
2022-11-18T20:04:24.949Z,8.10
2022-11-18T20:06:54.368Z,8.10
2022-11-18T20:09:22.445Z,8.10
2022-11-18T20:11:50.412Z,8.10
2022-11-18T20:14:18.525Z,8.10
2022-11-18T20:16:46.580Z,8.10
2022-11-18T20:19:17.186Z,8.00
2022-11-18T20:21:45.306Z,8.00
2022-11-18T20:24:17.795Z,8.00
2022-11-18T20:26:46.728Z,8.00
2022-11-18T20:29:14.750Z,8.00
2022-11-18T20:31:42.821Z,8.00
2022-11-18T20:34:14.133Z,8.00
2022-11-18T20:36:42.758Z,8.00
2022-11-18T20:39:14.774Z,8.00
2022-11-18T20:42:04.515Z,8.00
2022-11-18T20:44:32.456Z,8.00
2022-11-18T20:47:00.591Z,7.90
2022-11-18T20:49:28.520Z,7.90
2022-11-18T20:51:56.457Z,7.90
2022-11-18T20:54:24.396Z,7.80
2022-11-18T20:56:53.905Z,7.80
2022-11-18T20:59:21.849Z,7.80
2022-11-18T21:01:49.942Z,7.80
2022-11-18T21:04:17.910Z,7.80
2022-11-18T21:06:46.345Z,7.80
2022-11-18T21:09:14.409Z,7.90
2022-11-18T21:11:42.355Z,7.90
2022-11-18T21:14:24.495Z,7.90
2022-11-18T21:16:55.032Z,7.90
2022-11-18T21:19:23.450Z,7.80
2022-11-18T21:21:52.553Z,7.70
2022-11-18T21:24:22.822Z,7.60
2022-11-18T21:26:52.290Z,7.50
2022-11-18T21:29:22.253Z,7.50
2022-11-18T21:31:50.814Z,7.50
2022-11-18T21:34:19.361Z,7.50
2022-11-18T21:36:51.636Z,7.50
2022-11-18T21:39:22.938Z,7.50
2022-11-18T21:41:55.784Z,7.60
2022-11-18T21:44:27.755Z,7.60
2022-11-18T21:46:56.299Z,7.60
2022-11-18T21:49:24.330Z,7.60
2022-11-18T21:51:52.289Z,7.60
2022-11-18T21:54:20.384Z,7.60
2022-11-18T21:56:48.383Z,7.60
2022-11-18T21:59:16.699Z,7.60
2022-11-18T22:01:46.338Z,7.70
2022-11-18T22:04:34.263Z,7.60
2022-11-18T22:07:02.462Z,7.60
2022-11-18T22:09:36.168Z,7.60
2022-11-18T22:12:06.417Z,7.60
2022-11-18T22:14:34.396Z,7.60
2022-11-18T22:17:03.940Z,7.60
2022-11-18T22:19:31.930Z,7.70
2022-11-18T22:22:00.113Z,7.70
2022-11-18T22:24:28.276Z,7.70
2022-11-18T22:26:56.220Z,7.70
2022-11-18T22:29:25.883Z,7.70
2022-11-18T22:31:54.038Z,7.70
2022-11-18T22:34:23.308Z,7.70
2022-11-18T22:36:51.222Z,7.70
2022-11-18T22:39:19.477Z,7.70
2022-11-18T22:42:05.247Z,7.80
2022-11-18T22:44:33.384Z,7.80
2022-11-18T22:47:01.471Z,7.90
2022-11-18T22:49:30.755Z,7.80
2022-11-18T22:51:58.668Z,7.90
2022-11-18T22:54:41.917Z,7.90
2022-11-18T22:57:09.874Z,7.90
2022-11-18T22:59:37.893Z,7.90
2022-11-18T23:02:06.231Z,7.90
2022-11-18T23:04:35.828Z,7.90
2022-11-18T23:07:03.973Z,7.90
2022-11-18T23:09:32.005Z,7.90
2022-11-18T23:12:17.276Z,7.80
2022-11-18T23:14:45.240Z,7.80
2022-11-18T23:17:13.301Z,7.90
2022-11-18T23:19:43.828Z,7.80
2022-11-18T23:22:12.318Z,7.90
2022-11-18T23:24:40.662Z,7.80
2022-11-18T23:27:08.764Z,7.80
2022-11-18T23:29:36.796Z,7.80
2022-11-18T23:32:05.063Z,7.70
2022-11-18T23:34:33.016Z,7.60
2022-11-18T23:37:02.354Z,7.60
2022-11-18T23:39:30.416Z,7.60
2022-11-18T23:41:58.385Z,7.60
2022-11-18T23:44:40.255Z,7.60
2022-11-18T23:47:08.192Z,7.60
2022-11-18T23:49:36.118Z,7.50
2022-11-18T23:52:05.752Z,7.50
2022-11-18T23:54:33.667Z,7.50
2022-11-18T23:57:04.301Z,7.50
2022-11-18T23:59:32.774Z,7.60
